Time;durP1;ratioP1;P1;durP2;ratioP2;P2;SDS_P1;SDS_P2;PMS_P1;PMS_P2;Temp;Humidity;BMP_temperature;BMP_pressure;BME280_temperature;BME280_humidity;BME280_pressure;Samples;Min_cycle;Max_cycle;Signal;HPM_P1;HPM_P2
2023/04/09 00:02:09;;;;;;;44.95;30.45;;;11.20;99.90;;;;;;5055114;28;20076;-86
2023/04/09 00:04:34;;;;;;;44.33;29.65;;;11.30;99.90;;;;;;5052429;28;20446;-86
2023/04/09 00:07:00;;;;;;;41.10;30.05;;;11.20;99.90;;;;;;5053631;28;20119;-86
2023/04/09 00:09:26;;;;;;;40.15;29.00;;;11.30;99.90;;;;;;5063908;28;20029;-86
2023/04/09 00:11:51;;;;;;;42.90;29.48;;;11.20;99.90;;;;;;5076407;28;20032;-86
2023/04/09 00:14:17;;;;;;;42.95;29.55;;;11.30;99.90;;;;;;5067568;28;20033;-86
2023/04/09 00:16:42;;;;;;;39.60;28.73;;;11.20;99.90;;;;;;5052485;28;20461;-86
2023/04/09 00:19:08;;;;;;;41.25;27.30;;;11.20;99.90;;;;;;5051646;28;20021;-87
2023/04/09 00:21:33;;;;;;;39.45;29.10;;;11.50;99.90;;;;;;5052654;28;20086;-87
2023/04/09 00:23:59;;;;;;;38.22;27.75;;;11.20;99.90;;;;;;5053091;28;20068;-85
2023/04/09 00:26:25;;;;;;;38.92;28.65;;;12.00;99.90;;;;;;5045134;28;20049;-86
2023/04/09 00:28:50;;;;;;;37.25;27.45;;;11.20;99.90;;;;;;5032251;28;20029;-86
2023/04/09 00:31:16;;;;;;;43.65;29.65;;;11.20;99.90;;;;;;5031984;28;20026;-86
2023/04/09 00:33:42;;;;;;;43.65;29.92;;;11.20;99.90;;;;;;5032291;28;20029;-86
2023/04/09 00:36:07;;;;;;;40.03;29.83;;;11.20;99.90;;;;;;5032453;28;20099;-86
2023/04/09 00:38:33;;;;;;;41.20;28.88;;;11.20;99.90;;;;;;5031640;28;20029;-86
2023/04/09 00:40:58;;;;;;;41.88;29.30;;;11.10;99.90;;;;;;5032705;28;20029;-86
2023/04/09 00:43:24;;;;;;;40.20;29.23;;;11.20;99.90;;;;;;5032829;28;20025;-87
2023/04/09 00:45:50;;;;;;;42.80;28.90;;;11.20;99.90;;;;;;5031801;28;20034;-86
2023/04/09 00:48:16;;;;;;;45.63;29.85;;;11.20;99.90;;;;;;5032749;28;20025;-87
2023/04/09 00:50:42;;;;;;;43.30;29.58;;;11.20;99.90;;;;;;5032066;28;20061;-85
2023/04/09 00:53:09;;;;;;;37.85;27.20;;;11.20;99.90;;;;;;5032019;28;20486;-86
2023/04/09 00:55:35;;;;;;;43.75;29.67;;;11.20;99.90;;;;;;5032436;28;20389;-85
2023/04/09 00:58:01;;;;;;;42.40;28.65;;;11.20;99.90;;;;;;5032856;28;20059;-86
2023/04/09 01:00:27;;;;;;;40.00;28.90;;;11.30;99.90;;;;;;5032024;28;20410;-86
2023/04/09 01:03:00;;;;;;;42.83;27.83;;;11.30;99.90;;;;;;5032264;28;20052;-86
2023/04/09 01:05:47;;;;;;;39.65;27.85;;;11.70;99.90;;;;;;5032424;28;20056;-87
2023/04/09 01:09:00;;;;;;;41.45;27.95;;;11.30;99.90;;;;;;5031687;28;20548;-86
2023/04/09 01:11:28;;;;;;;35.17;26.20;;;11.30;99.90;;;;;;5032324;28;20030;-86
2023/04/09 01:14:43;;;;;;;40.47;28.20;;;12.10;99.90;;;;;;5031256;28;20125;-87
2023/04/09 01:17:41;;;;;;;36.08;26.13;;;11.30;99.90;;;;;;5032061;28;20033;-86
2023/04/09 01:20:40;;;;;;;36.60;26.95;;;11.30;99.90;;;;;;5031220;23;20056;-87
2023/04/09 01:23:28;;;;;;;36.97;27.95;;;10.90;99.90;;;;;;5013482;28;20029;-87
2023/04/09 01:26:16;;;;;;;33.58;25.15;;;11.50;99.90;;;;;;5012442;28;20037;-86
2023/04/09 01:28:42;;;;;;;35.20;25.17;;;12.10;99.90;;;;;;5012873;28;20029;-86
2023/04/09 01:31:30;;;;;;;33.13;24.92;;;11.70;99.90;;;;;;5016266;28;20026;-87
2023/04/09 01:34:13;;;;;;;33.08;24.88;;;11.20;99.90;;;;;;5016339;28;20040;-86
2023/04/09 01:37:01;;;;;;;29.83;22.23;;;11.90;99.90;;;;;;5015246;28;20030;-86
2023/04/09 01:39:47;;;;;;;28.85;22.25;;;11.20;99.90;;;;;;5015927;28;20030;-87
2023/04/09 01:42:35;;;;;;;31.77;22.05;;;11.90;99.90;;;;;;5015445;28;20064;-86
2023/04/09 01:45:02;;;;;;;31.88;22.33;;;11.10;99.90;;;;;;5016009;28;20029;-86
2023/04/09 01:47:46;;;;;;;31.15;22.15;;;12.10;99.90;;;;;;5016179;28;20021;-86
2023/04/09 01:50:31;;;;;;;26.88;20.95;;;11.70;99.90;;;;;;5014950;28;20108;-86
2023/04/09 01:53:16;;;;;;;29.42;21.25;;;11.70;99.90;;;;;;5015924;28;20030;-86
2023/04/09 01:55:42;;;;;;;29.05;21.17;;;11.80;99.90;;;;;;5017983;28;20026;-85
2023/04/09 01:58:22;;;;;;;27.50;21.33;;;11.90;99.90;;;;;;5039442;28;20025;-85
2023/04/09 02:01:13;;;;;;;24.07;20.70;;;12.00;99.90;;;;;;5016916;28;20031;-86
2023/04/09 02:04:06;;;;;;;29.60;21.65;;;11.50;99.90;;;;;;5014461;28;20755;-86
2023/04/09 02:07:15;;;;;;;31.98;23.20;;;11.20;99.90;;;;;;5015503;28;20022;-86
2023/04/09 02:09:42;;;;;;;30.70;23.77;;;12.70;99.90;;;;;;5014994;28;20558;-85
2023/04/09 02:12:20;;;;;;;30.48;23.88;;;12.20;99.90;;;;;;5015541;28;20022;-87
2023/04/09 02:15:10;;;;;;;28.55;22.50;;;12.30;99.90;;;;;;5015166;28;20117;-86
2023/04/09 02:17:36;;;;;;;29.80;23.08;;;11.90;99.90;;;;;;5014489;28;20022;-86
2023/04/09 02:20:14;;;;;;;31.15;24.98;;;12.00;99.90;;;;;;5014809;28;20132;-87
2023/04/09 02:22:58;;;;;;;30.73;24.50;;;11.00;99.90;;;;;;5007021;28;20097;-86
2023/04/09 02:25:43;;;;;;;31.17;24.42;;;12.50;99.90;;;;;;5117520;23;20057;-86
2023/04/09 02:28:09;;;;;;;32.53;25.17;;;12.50;99.90;;;;;;5034736;28;20029;-86
2023/04/09 02:30:55;;;;;;;33.47;24.58;;;12.60;99.90;;;;;;5034541;28;20527;-86
2023/04/09 02:33:39;;;;;;;32.33;25.13;;;11.00;99.90;;;;;;5034753;28;20551;-86
2023/04/09 02:36:19;;;;;;;35.60;24.73;;;11.10;99.90;;;;;;5034750;28;20040;-86
2023/04/09 02:39:00;;;;;;;;;;;12.10;99.90;;;;;;5034049;28;20032;-86
2023/04/09 02:41:26;;;;;;;34.45;25.45;;;12.00;99.90;;;;;;5033684;28;19988;-86
2023/04/09 02:43:57;;;;;;;35.25;24.17;;;12.80;99.90;;;;;;5034181;28;20492;-85
2023/04/09 02:46:23;;;;;;;33.38;25.23;;;12.40;99.90;;;;;;5034073;28;20029;-86
2023/04/09 02:48:57;;;;;;;36.60;24.13;;;12.60;99.90;;;;;;5034211;28;20175;-86
2023/04/09 02:51:43;;;;;;;32.38;25.38;;;12.80;99.90;;;;;;5041429;22;20140;-86
2023/04/09 02:54:09;;;;;;;31.17;25.15;;;13.30;99.90;;;;;;5033518;28;20029;-86
2023/04/09 02:56:53;;;;;;;30.70;24.90;;;11.80;99.90;;;;;;5024601;23;20237;-85
2023/04/09 02:59:39;;;;;;;31.00;25.38;;;12.10;99.90;;;;;;5014205;28;20124;-86
2023/04/09 03:02:20;;;;;;;38.13;25.25;;;12.60;99.90;;;;;;5014356;28;20074;-86
2023/04/09 03:04:55;;;;;;;32.63;25.05;;;12.70;99.90;;;;;;5014114;28;20470;-87
2023/04/09 03:07:33;;;;;;;34.83;26.60;;;12.00;99.90;;;;;;5013868;28;20034;-87
2023/04/09 03:10:14;;;;;;;32.35;25.63;;;12.80;99.90;;;;;;5014618;28;20018;-86
2023/04/09 03:12:54;;;;;;;34.83;25.52;;;12.40;99.90;;;;;;5014237;28;20034;-87
2023/04/09 03:15:41;;;;;;;33.05;25.70;;;11.70;99.90;;;;;;5013655;28;20034;-86
2023/04/09 03:18:07;;;;;;;34.75;26.55;;;11.30;99.90;;;;;;5014371;28;20388;-86
2023/04/09 03:20:38;;;;;;;33.97;25.80;;;10.80;99.90;;;;;;5013357;28;20125;-86
2023/04/09 03:23:15;;;;;;;32.72;25.48;;;12.20;99.90;;;;;;5014389;28;20478;-87
2023/04/09 03:25:41;;;;;;;32.25;25.65;;;11.50;99.90;;;;;;5014213;28;20116;-86
2023/04/09 03:28:24;;;;;;;34.08;25.35;;;12.10;99.90;;;;;;5013355;28;20156;-86
2023/04/09 03:30:50;;;;;;;33.92;25.02;;;12.40;99.90;;;;;;5014076;28;20029;-87
2023/04/09 03:33:30;;;;;;;34.10;25.38;;;12.30;99.90;;;;;;5013708;28;20038;-86
2023/04/09 03:36:02;;;;;;;30.63;24.00;;;12.40;99.90;;;;;;5013662;28;20034;-87
2023/04/09 03:38:37;;;;;;;31.30;24.58;;;11.80;99.90;;;;;;5014026;28;20033;-86
2023/04/09 03:41:20;;;;;;;34.50;25.08;;;11.90;99.90;;;;;;5013617;28;20042;-86
2023/04/09 03:43:46;;;;;;;39.25;26.27;;;12.00;99.90;;;;;;5020063;28;20018;-87
2023/04/09 03:46:15;;;;;;;32.10;24.45;;;12.70;99.90;;;;;;5038459;28;20069;-86
2023/04/09 03:48:41;;;;;;;32.30;25.38;;;12.50;99.90;;;;;;5032608;28;20022;-86
2023/04/09 03:51:22;;;;;;;37.17;26.20;;;12.50;99.90;;;;;;5030616;23;21571;-86
2023/04/09 03:53:47;;;;;;;37.40;25.70;;;12.20;99.90;;;;;;5013348;28;20496;-86
2023/04/09 03:56:32;;;;;;;32.53;25.35;;;12.60;99.90;;;;;;5013628;28;20030;-86
2023/04/09 03:58:57;;;;;;;33.38;25.02;;;10.80;99.90;;;;;;5013658;28;20034;-86
2023/04/09 04:01:45;;;;;;;32.60;24.40;;;12.20;99.90;;;;;;5013735;28;20026;-86
2023/04/09 04:04:25;;;;;;;33.22;25.25;;;11.60;99.90;;;;;;5019846;23;20050;-86
2023/04/09 04:07:12;;;;;;;33.58;23.90;;;12.20;99.90;;;;;;5013081;28;20539;-87
2023/04/09 04:09:37;;;;;;;34.22;25.73;;;10.90;99.90;;;;;;5013980;28;20030;-87
2023/04/09 04:12:24;;;;;;;32.10;23.83;;;12.20;99.90;;;;;;5013460;28;20022;-87
2023/04/09 04:14:50;;;;;;;36.03;27.02;;;11.20;99.90;;;;;;5069421;23;20053;-86
2023/04/09 04:17:24;;;;;;;35.15;26.17;;;12.30;99.90;;;;;;5012371;28;20489;-86
2023/04/09 04:19:50;;;;;;;36.78;26.33;;;12.40;99.90;;;;;;5013287;28;20033;-87
2023/04/09 04:22:34;;;;;;;29.75;23.40;;;12.30;99.90;;;;;;5013213;28;20018;-87
2023/04/09 04:25:15;;;;;;;33.17;25.55;;;12.20;99.90;;;;;;5012683;28;20109;-87
2023/04/09 04:27:41;;;;;;;37.55;26.88;;;12.30;99.90;;;;;;5012906;28;20054;-87
2023/04/09 04:30:29;;;;;;;34.17;25.05;;;12.30;99.90;;;;;;5013431;28;20022;-86
2023/04/09 04:33:09;;;;;;;31.85;25.02;;;11.40;99.90;;;;;;5013035;28;20049;-86
2023/04/09 04:35:44;;;;;;;38.97;26.55;;;11.40;99.90;;;;;;5013081;28;20037;-86
2023/04/09 04:38:19;;;;;;;34.20;25.73;;;12.10;99.90;;;;;;5012455;28;20113;-86
2023/04/09 04:40:59;;;;;;;35.72;26.40;;;12.50;99.90;;;;;;5012547;28;20025;-86
2023/04/09 04:43:25;;;;;;;35.10;26.02;;;12.10;99.90;;;;;;5012846;28;20109;-87
2023/04/09 04:46:00;;;;;;;36.38;26.38;;;12.40;99.90;;;;;;5011681;28;20142;-87
2023/04/09 04:48:28;;;;;;;35.42;26.30;;;11.80;99.90;;;;;;5013138;28;20026;-86
2023/04/09 04:51:08;;;;;;;36.33;26.58;;;12.60;99.90;;;;;;5012631;28;20053;-87
2023/04/09 04:53:34;;;;;;;37.20;26.90;;;10.90;99.90;;;;;;5011645;28;20033;-86
2023/04/09 04:56:13;;;;;;;34.63;26.33;;;11.60;99.90;;;;;;5012459;28;20386;-86
2023/04/09 04:58:48;;;;;;;42.20;27.15;;;12.70;99.90;;;;;;5012341;28;20073;-86
2023/04/09 05:01:13;;;;;;;40.08;27.33;;;11.60;99.90;;;;;;5012717;28;20033;-87
2023/04/09 05:03:45;;;;;;;34.97;26.65;;;12.30;99.90;;;;;;5013647;28;20029;-87
2023/04/09 05:06:26;;;;;;;35.03;25.80;;;12.40;99.90;;;;;;5016219;28;20040;-87
2023/04/09 05:08:53;;;;;;;36.85;25.95;;;11.50;99.90;;;;;;5016682;28;20026;-86
2023/04/09 05:11:33;;;;;;;33.60;24.75;;;12.50;99.90;;;;;;5016320;28;20026;-86
2023/04/09 05:13:58;;;;;;;36.90;24.80;;;12.50;99.90;;;;;;5021218;28;20050;-86
2023/04/09 05:16:45;;;;;;;35.88;25.35;;;11.90;99.90;;;;;;5036305;28;20496;-85
2023/04/09 05:19:10;;;;;;;37.20;25.95;;;12.20;99.90;;;;;;5036476;28;20021;-86
2023/04/09 05:24:22;;;;;;;35.40;26.40;;;12.40;99.90;;;;;;5021062;28;20030;-86
2023/04/09 05:26:57;;;;;;;37.55;26.98;;;12.10;99.90;;;;;;5035002;28;20021;-86
2023/04/09 05:29:23;;;;;;;38.50;26.75;;;11.10;99.90;;;;;;5036676;28;20017;-86
2023/04/09 05:31:55;;;;;;;36.17;26.23;;;12.50;99.90;;;;;;5047244;28;20032;-87
2023/04/09 05:34:35;;;;;;;45.13;28.02;;;11.50;99.90;;;;;;5059703;28;20101;-87
2023/04/09 05:37:01;;;;;;;;;;;12.30;99.90;;;;;;5048323;28;20041;-87
2023/04/09 05:39:45;;;;;;;41.40;27.40;;;12.90;99.90;;;;;;5035655;28;19913;-87
2023/04/09 05:42:36;;;;;;;45.63;29.38;;;12.20;99.90;;;;;;5035143;28;20033;-87
2023/04/09 05:45:21;;;;;;;46.00;29.88;;;10.70;99.90;;;;;;5035743;28;20075;-87
2023/04/09 05:47:47;;;;;;;53.47;29.77;;;10.70;99.90;;;;;;5034774;28;20104;-88
2023/04/09 05:50:13;;;;;;;47.58;30.35;;;12.20;99.90;;;;;;5035623;28;20148;-87
2023/04/09 05:52:59;;;;;;;61.25;36.15;;;12.40;99.90;;;;;;5035302;28;20053;-87
2023/04/09 05:55:25;;;;;;;60.83;35.00;;;12.40;99.90;;;;;;5035087;28;20389;-87
2023/04/09 05:57:59;;;;;;;66.20;36.92;;;11.70;99.90;;;;;;5035329;28;20079;-87
2023/04/09 06:00:40;;;;;;;63.90;36.72;;;12.40;99.90;;;;;;5035725;28;20102;-87
2023/04/09 06:03:05;;;;;;;66.03;39.05;;;12.60;99.90;;;;;;5034986;28;20461;-87
2023/04/09 06:05:45;;;;;;;68.40;38.53;;;12.40;99.90;;;;;;5034892;28;20032;-87
2023/04/09 06:08:12;;;;;;;70.03;38.88;;;12.10;99.90;;;;;;5035028;28;20049;-86
2023/04/09 06:10:50;;;;;;;72.15;41.50;;;11.80;99.90;;;;;;5034595;28;20021;-87
2023/04/09 06:13:16;;;;;;;77.50;43.42;;;12.50;99.90;;;;;;5034888;28;20132;-87
2023/04/09 06:15:41;;;;;;;76.13;42.33;;;12.50;99.90;;;;;;5033787;28;20128;-86
2023/04/09 06:18:29;;;;;;;80.65;41.50;;;12.30;99.90;;;;;;5034345;28;20064;-86
2023/04/09 06:21:19;;;;;;;65.50;38.10;;;11.60;99.90;;;;;;5034968;28;20017;-86
2023/04/09 06:23:45;;;;;;;68.57;39.13;;;11.30;99.90;;;;;;5034060;28;20060;-86
2023/04/09 06:26:32;;;;;;;72.57;41.50;;;12.30;99.90;;;;;;5035018;28;20103;-86
2023/04/09 06:28:58;;;;;;;73.63;40.88;;;11.10;99.90;;;;;;5035070;28;20029;-86
2023/04/09 06:31:42;;;;;;;67.40;39.30;;;12.20;99.90;;;;;;5034151;28;20397;-87
2023/04/09 06:34:07;;;;;;;71.40;39.17;;;12.40;99.90;;;;;;5033473;28;20136;-86
2023/04/09 06:36:54;;;;;;;70.32;38.88;;;12.20;99.90;;;;;;5034476;28;20041;-86
2023/04/09 06:39:20;;;;;;;67.68;38.45;;;12.70;99.90;;;;;;5033311;28;20071;-86
2023/04/09 06:41:46;;;;;;;65.60;39.45;;;12.00;99.90;;;;;;5033492;28;20018;-85
2023/04/09 06:44:32;;;;;;;67.47;39.53;;;12.30;99.90;;;;;;5032989;28;20033;-86
2023/04/09 06:46:57;;;;;;;66.50;39.97;;;11.50;99.90;;;;;;5031810;28;20036;-86
2023/04/09 06:49:35;;;;;;;73.88;41.85;;;12.20;99.90;;;;;;5015664;28;20108;-85
2023/04/09 06:52:01;;;;;;;68.53;39.22;;;12.30;99.90;;;;;;5031798;28;20056;-85
2023/04/09 06:54:48;;;;;;;69.47;42.25;;;12.90;99.90;;;;;;5033979;28;20080;-86
2023/04/09 06:57:29;;;;;;;75.75;43.10;;;10.70;99.90;;;;;;5031592;28;20108;-85
2023/04/09 06:59:55;;;;;;;71.55;42.55;;;12.10;99.90;;;;;;5031695;28;20091;-86
2023/04/09 07:02:33;;;;;;;79.65;46.63;;;12.10;99.90;;;;;;5034030;28;20469;-85
2023/04/09 07:04:59;;;;;;;77.90;44.70;;;12.00;99.90;;;;;;5032695;28;20049;-86
2023/04/09 07:07:37;;;;;;;67.60;41.50;;;11.70;99.90;;;;;;5033209;28;20049;-86
2023/04/09 07:10:03;;;;;;;69.82;41.45;;;11.20;99.90;;;;;;5029917;28;20029;-86
2023/04/09 07:15:17;;;;;;;74.78;41.00;;;12.70;99.90;;;;;;5032710;28;20049;-85
2023/04/09 07:17:43;;;;;;;71.30;41.05;;;12.00;99.90;;;;;;5035282;28;20033;-86
2023/04/09 07:20:09;;;;;;;66.88;40.38;;;12.00;99.90;;;;;;5048946;28;20043;-85
2023/04/09 07:22:43;;;;;;;68.88;41.42;;;11.50;99.90;;;;;;5056692;28;20052;-86
2023/04/09 07:25:09;;;;;;;72.38;41.03;;;11.40;99.90;;;;;;5039306;28;20057;-86
2023/04/09 07:27:53;;;;;;;73.28;42.92;;;12.20;99.90;;;;;;5032015;28;20985;-86
2023/04/09 07:30:19;;;;;;;71.47;41.97;;;12.20;99.90;;;;;;5033656;28;20044;-89
2023/04/09 07:33:02;;;;;;;67.75;42.15;;;11.90;99.90;;;;;;5032693;28;20417;-86
2023/04/09 07:35:50;;;;;;;75.15;44.95;;;11.60;99.90;;;;;;5032401;28;20029;-86
2023/04/09 07:38:17;;;;;;;70.88;43.78;;;11.50;99.90;;;;;;5031527;28;20025;-87
2023/04/09 07:40:50;;;;;;;81.40;45.55;;;12.20;99.90;;;;;;5032481;28;20025;-86
2023/04/09 07:43:16;;;;;;;79.68;46.13;;;11.40;99.90;;;;;;5030273;28;20048;-85
2023/04/09 07:45:53;;;;;;;81.70;47.83;;;11.30;99.90;;;;;;5042634;23;20497;-85
2023/04/09 07:48:19;;;;;;;69.57;44.97;;;12.20;99.90;;;;;;5032414;28;20025;-85
2023/04/09 07:50:51;;;;;;;75.97;44.67;;;11.80;99.90;;;;;;5033007;28;20355;-86
2023/04/09 07:53:17;;;;;;;79.07;47.50;;;12.30;99.90;;;;;;5050175;28;20485;-85
2023/04/09 07:55:55;;;;;;;77.80;47.78;;;11.30;99.90;;;;;;5053095;28;20025;-86
2023/04/09 07:58:29;;;;;;;72.55;44.92;;;12.20;99.90;;;;;;5053481;28;20026;-85
2023/04/09 08:00:55;;;;;;;70.43;44.13;;;11.20;99.90;;;;;;5053687;28;20097;-86
2023/04/09 08:03:37;;;;;;;74.28;46.95;;;12.10;99.90;;;;;;5039278;28;20548;-85
2023/04/09 08:06:03;;;;;;;65.95;43.90;;;12.30;99.90;;;;;;5053314;28;20104;-86
2023/04/09 08:08:46;;;;;;;73.47;45.10;;;11.40;99.90;;;;;;5051667;28;20041;-85
2023/04/09 08:11:33;;;;;;;71.32;44.63;;;12.00;99.90;;;;;;5021621;28;20021;-88
2023/04/09 08:14:03;;;;;;;68.55;43.33;;;11.20;99.90;;;;;;5013125;28;20034;-87
2023/04/09 08:16:32;;;;;;;70.78;44.60;;;12.20;99.90;;;;;;5012893;28;20492;-85
2023/04/09 08:18:57;;;;;;;74.25;46.08;;;11.80;99.90;;;;;;5013929;28;20030;-86
2023/04/09 08:21:42;;;;;;;72.18;44.42;;;11.20;99.90;;;;;;5013928;28;20029;-86
2023/04/09 08:24:26;;;;;;;72.53;43.80;;;11.40;99.90;;;;;;5012792;28;20022;-85
2023/04/09 08:27:14;;;;;;;65.38;41.70;;;12.40;99.90;;;;;;5011131;28;20121;-86
2023/04/09 08:29:41;;;;;;;64.82;42.80;;;11.60;99.90;;;;;;4992686;28;20106;-86
2023/04/09 08:35:53;;;;;;;67.85;43.22;;;11.50;99.90;;;;;;5021520;22;20113;-90
2023/04/09 08:38:41;;;;;;;68.70;44.20;;;11.50;99.90;;;;;;5019511;23;20506;-88
2023/04/09 08:41:29;;;;;;;68.00;43.30;;;11.40;99.90;;;;;;5014267;28;20064;-90
2023/04/09 08:44:20;;;;;;;68.10;43.85;;;11.10;99.90;;;;;;5017711;23;20101;-88
2023/04/09 08:47:11;;;;;;;59.72;37.50;;;10.70;99.90;;;;;;5006430;28;20033;-90
2023/04/09 08:49:55;;;;;;;54.72;35.55;;;11.40;99.90;;;;;;5013464;28;20026;-88
2023/04/09 08:52:36;;;;;;;45.10;29.83;;;12.20;99.90;;;;;;5013030;28;20030;-89
2023/04/09 08:55:20;;;;;;;41.92;28.60;;;12.00;99.90;;;;;;5013203;28;20053;-88
2023/04/09 08:58:09;;;;;;;42.65;27.67;;;11.50;99.90;;;;;;5005032;28;20702;-89
2023/04/09 09:00:47;;;;;;;44.08;28.45;;;11.50;99.90;;;;;;5013107;28;20053;-88
2023/04/09 09:03:12;;;;;;;47.38;29.63;;;10.80;99.90;;;;;;5013914;28;20022;-87
2023/04/09 09:06:00;;;;;;;43.90;28.52;;;11.80;99.90;;;;;;5014461;28;20457;-88
2023/04/09 09:08:54;;;;;;;42.67;27.45;;;11.70;99.90;;;;;;5031210;28;20073;-88
2023/04/09 09:11:41;;;;;;;41.88;28.25;;;11.10;99.90;;;;;;4949081;29;20063;-87
2023/04/09 09:14:35;;;;;;;48.00;28.80;;;12.30;99.90;;;;;;4930777;29;20036;-88
2023/04/09 09:17:04;;;;;;;42.67;28.40;;;11.70;99.90;;;;;;4932073;29;20126;-88
2023/04/09 09:19:48;;;;;;;45.70;26.40;;;12.10;99.90;;;;;;5018608;23;20425;-87
2023/04/09 09:25:01;;;;;;;47.17;29.83;;;11.80;99.90;;;;;;5036797;22;20079;-89
2023/04/09 09:27:54;;;;;;;45.17;29.20;;;11.50;99.90;;;;;;5031472;28;20493;-89
2023/04/09 09:33:51;;;;;;;47.33;29.88;;;11.80;99.90;;;;;;5463982;22;20115;-87
2023/04/09 09:36:33;;;;;;;45.58;28.90;;;11.80;99.90;;;;;;5010060;28;20478;-84
2023/04/09 09:39:11;;;;;;;41.47;27.85;;;12.70;99.90;;;;;;4999917;28;20057;-86
2023/04/09 09:41:44;;;;;;;44.47;29.20;;;12.50;99.90;;;;;;5006936;28;20073;-89
2023/04/09 09:44:30;;;;;;;47.25;30.88;;;12.00;99.90;;;;;;5273888;23;20033;-86
2023/04/09 09:46:57;;;;;;;50.35;32.92;;;12.30;99.90;;;;;;4976176;28;20123;-87
2023/04/09 09:49:40;;;;;;;53.00;32.08;;;12.20;99.90;;;;;;4986403;28;20118;-87
2023/04/09 10:01:15;;;;;;;50.67;33.40;;;12.30;99.90;;;;;;5027381;28;20330;-87
2023/04/09 10:03:52;;;;;;;50.03;33.47;;;13.10;99.90;;;;;;5029047;22;20082;-88
2023/04/09 10:09:45;;;;;;;53.35;33.20;;;12.40;99.90;;;;;;5302239;22;20054;-89
2023/04/09 10:15:21;;;;;;;51.25;34.40;;;12.40;99.90;;;;;;5465766;23;20120;-88
2023/04/09 10:20:55;;;;;;;54.45;34.85;;;12.50;99.90;;;;;;5595637;23;20078;-85
2023/04/09 10:23:52;;;;;;;50.47;34.83;;;12.50;99.90;;;;;;5013155;28;20030;-85
2023/04/09 10:26:32;;;;;;;50.70;35.35;;;12.50;99.90;;;;;;4973060;28;20040;-83
2023/04/09 10:29:15;;;;;;;51.75;35.13;;;13.50;99.90;;;;;;5012825;28;20109;-86
2023/04/09 10:32:08;;;;;;;52.22;36.47;;;13.50;99.90;;;;;;5010691;28;20080;-86
2023/04/09 10:34:56;;;;;;;53.10;35.25;;;12.50;99.90;;;;;;5001959;28;20045;-85
2023/04/09 10:40:36;;;;;;;53.35;33.88;;;13.80;99.90;;;;;;5010922;28;20034;-86
2023/04/09 10:43:04;;;;;;;48.65;35.10;;;12.70;99.90;;;;;;5008722;28;20018;-85
2023/04/09 10:45:41;;;;;;;53.47;35.33;;;13.70;99.90;;;;;;5004109;23;20077;-85
2023/04/09 10:48:31;;;;;;;47.13;33.92;;;13.40;99.90;;;;;;4993086;28;20027;-85
2023/04/09 10:51:18;;;;;;;49.47;33.65;;;12.90;99.90;;;;;;4993175;28;20022;-86
2023/04/09 10:53:53;;;;;;;50.67;33.08;;;12.90;99.90;;;;;;4996026;28;20483;-85
2023/04/09 10:56:18;;;;;;;47.95;31.80;;;13.20;99.90;;;;;;5014140;28;20034;-86
2023/04/09 10:59:21;;;;;;;45.67;31.67;;;13.60;99.90;;;;;;5024646;28;20026;-85
2023/04/09 11:02:07;;;;;;;45.03;31.63;;;13.10;99.90;;;;;;4989390;28;20030;-86
2023/04/09 11:05:04;;;;;;;49.70;33.10;;;14.40;99.90;;;;;;4990697;28;20109;-85
2023/04/09 11:07:46;;;;;;;47.13;31.73;;;13.20;99.90;;;;;;4993160;28;20061;-85
2023/04/09 11:10:21;;;;;;;37.30;27.60;;;13.30;99.90;;;;;;4992040;28;20027;-84
2023/04/09 11:12:47;;;;;;;41.28;27.80;;;13.40;99.90;;;;;;4988846;28;20486;-85
2023/04/09 11:15:22;;;;;;;43.70;29.58;;;13.20;99.90;;;;;;4994503;28;20042;-86
2023/04/09 11:17:54;;;;;;;38.92;28.60;;;13.60;99.90;;;;;;4986706;28;20058;-84
2023/04/09 11:20:30;;;;;;;40.90;28.65;;;14.20;99.90;;;;;;4987791;28;20042;-85
2023/04/09 11:23:12;;;;;;;39.90;28.58;;;14.10;99.90;;;;;;4987890;28;20034;-88
2023/04/09 11:29:41;;;;;;;39.40;28.17;;;13.50;99.90;;;;;;4912489;29;20059;-87
2023/04/09 11:52:37;;;;;;;41.53;30.05;;;13.90;99.90;;;;;;5009789;28;20124;-89
2023/04/09 12:14:24;;;;;;;39.35;29.90;;;14.00;99.90;;;;;;5165779;23;20046;-87
2023/04/09 12:17:03;;;;;;;40.65;29.77;;;14.00;99.90;;;;;;4972841;28;20430;-88
2023/04/09 12:19:49;;;;;;;39.00;29.00;;;14.00;99.90;;;;;;4971815;28;20069;-88
2023/04/09 12:22:30;;;;;;;32.75;24.77;;;15.10;99.90;;;;;;4970835;28;20055;-89
2023/04/09 12:25:20;;;;;;;38.22;27.98;;;14.20;99.90;;;;;;4972509;28;20034;-89
2023/04/09 12:27:58;;;;;;;33.20;28.00;;;14.00;99.90;;;;;;4978999;28;20057;-89
2023/04/09 12:30:29;;;;;;;36.05;28.30;;;14.40;99.90;;;;;;4971515;28;20089;-86
2023/04/09 12:33:13;;;;;;;35.50;27.88;;;15.30;99.90;;;;;;5027750;23;20057;-88
2023/04/09 12:35:38;;;;;;;33.60;26.73;;;14.10;99.90;;;;;;4971277;28;20030;-88
2023/04/09 12:38:19;;;;;;;31.15;25.80;;;15.10;99.90;;;;;;4972472;28;20019;-88
2023/04/09 12:41:08;;;;;;;31.77;25.50;;;14.50;99.90;;;;;;4973327;28;20041;-89
2023/04/09 12:43:47;;;;;;;31.05;24.63;;;14.50;99.90;;;;;;4994398;28;20014;-88
2023/04/09 12:46:31;;;;;;;30.48;24.77;;;14.70;99.90;;;;;;4990602;28;20023;-88
2023/04/09 12:49:20;;;;;;;33.70;25.02;;;15.30;99.90;;;;;;4972523;28;20493;-88
2023/04/09 12:51:50;;;;;;;31.67;25.35;;;15.20;99.90;;;;;;4972378;28;20038;-88
2023/04/09 12:54:25;;;;;;;35.60;26.25;;;15.20;99.90;;;;;;4973962;28;20106;-88
2023/04/09 12:57:15;;;;;;;31.35;26.65;;;13.90;99.90;;;;;;4973361;28;20043;-88
2023/04/09 12:59:56;;;;;;;33.53;25.77;;;14.50;99.90;;;;;;4901649;28;20040;-88
2023/04/09 13:02:40;;;;;;;34.08;25.13;;;14.90;99.90;;;;;;4989363;23;20058;-87
2023/04/09 13:05:24;;;;;;;34.10;25.55;;;14.00;99.90;;;;;;4953770;29;20058;-87
2023/04/09 13:08:13;;;;;;;31.35;24.52;;;15.60;99.90;;;;;;4954850;29;20027;-87
2023/04/09 13:10:48;;;;;;;32.92;24.48;;;14.60;99.90;;;;;;4955437;29;20024;-89
2023/04/09 13:13:34;;;;;;;26.27;22.92;;;15.10;99.90;;;;;;4954084;28;20038;-88
2023/04/09 13:16:12;;;;;;;27.08;23.02;;;14.80;99.90;;;;;;4955947;29;20055;-88
2023/04/09 13:45:19;;;;;;;28.90;21.30;;;15.30;99.90;;;;;;5627605;23;20043;-86
2023/04/09 13:48:10;;;;;;;27.17;21.27;;;15.30;99.90;;;;;;4972553;28;20034;-86
2023/04/09 13:56:09;;;;;;;23.80;20.60;;;15.50;99.90;;;;;;5053476;23;20066;-87
2023/04/09 13:59:03;;;;;;;26.25;20.92;;;15.50;99.90;;;;;;4993087;23;20050;-89
2023/04/09 14:02:19;;;;;;;21.38;18.92;;;15.60;99.90;;;;;;4984300;28;20027;-89
2023/04/09 14:09:27;;;;;;;;;;;;;;;;;;;;;
2023/04/09 14:13:05;;;;;;;;;;;;;;;;;;;;;
2023/04/09 14:19:14;;;;;;;22.67;18.40;;;15.90;99.90;;;;;;4831871;29;20052;-88
2023/04/09 14:27:14;;;;;;;19.90;16.75;;;16.30;99.90;;;;;;5255368;23;20069;-87
2023/04/09 14:30:01;;;;;;;20.63;15.70;;;16.40;99.90;;;;;;4996551;28;20015;-88
2023/04/09 14:32:38;;;;;;;18.50;16.13;;;17.20;99.90;;;;;;4998556;28;20274;-88
2023/04/09 14:35:20;;;;;;;20.77;17.60;;;16.50;99.90;;;;;;4976688;28;20030;-86
2023/04/09 14:38:17;;;;;;;;;;;;;;;;;;;;;
2023/04/09 14:40:52;;;;;;;25.25;18.55;;;16.30;99.90;;;;;;4915985;29;20365;-88
2023/04/09 14:43:41;;;;;;;22.38;19.17;;;17.50;99.90;;;;;;4929813;29;20025;-87
2023/04/09 14:46:21;;;;;;;22.60;19.40;;;16.20;99.90;;;;;;4929995;29;20518;-86
2023/04/09 14:49:01;;;;;;;22.13;19.80;;;16.80;99.90;;;;;;4934772;29;20087;-87
2023/04/09 14:51:41;;;;;;;25.00;19.92;;;16.70;99.90;;;;;;4992817;23;20085;-87
2023/04/09 14:54:25;;;;;;;20.58;18.00;;;17.50;99.90;;;;;;4975873;28;20450;-88
2023/04/09 14:57:11;;;;;;;22.23;18.85;;;15.70;99.90;;;;;;4975340;28;20023;-88
2023/04/09 15:00:01;;;;;;;22.55;18.70;;;17.20;99.90;;;;;;4975709;28;20027;-89
2023/04/09 15:02:41;;;;;;;23.38;20.23;;;16.60;99.90;;;;;;4974580;28;20034;-88
2023/04/09 15:05:16;;;;;;;20.42;18.33;;;17.30;99.90;;;;;;4975250;28;20386;-87
2023/04/09 15:08:00;;;;;;;22.67;18.23;;;16.60;99.90;;;;;;4978036;28;20031;-87
2023/04/09 15:10:44;;;;;;;20.77;18.55;;;16.90;99.90;;;;;;4975240;28;20078;-88
2023/04/09 15:13:30;;;;;;;17.35;15.43;;;17.70;99.90;;;;;;4975752;28;20101;-87
2023/04/09 15:16:21;;;;;;;17.85;15.98;;;16.90;99.90;;;;;;4976224;28;20112;-87
2023/04/09 15:19:09;;;;;;;18.33;16.52;;;16.90;99.90;;;;;;4974467;28;20098;-86
2023/04/09 15:21:55;;;;;;;18.83;16.65;;;17.00;99.90;;;;;;5065897;23;20051;-88
2023/04/09 15:24:21;;;;;;;21.17;17.90;;;17.80;99.90;;;;;;4975284;28;20031;-87
2023/04/09 15:27:08;;;;;;;18.42;16.42;;;18.00;99.90;;;;;;4974704;28;20382;-87
2023/04/09 15:29:45;;;;;;;18.77;16.77;;;17.20;99.90;;;;;;4975709;28;20065;-87